Time;durP1;ratioP1;P1;durP2;ratioP2;P2;SDS_P1;SDS_P2;PMS_P1;PMS_P2;Temp;Humidity;BMP_temperature;BMP_pressure;BME280_temperature;BME280_humidity;BME280_pressure;Samples;Min_cycle;Max_cycle;Signal;HPM_P1;HPM_P2
2021/09/30 00:01:05;;;;;;;8.98;8.55;;;;;;;;;;5027977;28;20041;-55
2021/09/30 00:03:32;;;;;;;9.23;8.45;;;;;;;;;;5023336;28;20038;-54
2021/09/30 00:05:59;;;;;;;9.40;8.75;;;;;;;;;;5027574;28;20037;-54
2021/09/30 00:08:26;;;;;;;8.32;7.93;;;;;;;;;;5026301;28;20136;-55
2021/09/30 00:11:04;;;;;;;7.72;7.32;;;;;;;;;;5026669;28;20087;-55
2021/09/30 00:13:41;;;;;;;9.50;8.80;;;;;;;;;;5030231;28;20041;-54
2021/09/30 00:40:38;;;;;;;8.23;7.68;;;;;;;;;;5028006;28;20046;-55
2021/09/30 00:46:02;;;;;;;8.48;8.05;;;;;;;;;;5025045;28;20119;-55
2021/09/30 02:20:18;;;;;;;8.65;7.55;;;;;;;;;;5022850;28;20080;-56
2021/09/30 02:58:15;;;;;;;8.60;8.18;;;;;;;;;;5018185;28;20091;-55
2021/09/30 03:00:43;;;;;;;9.35;8.73;;;;;;;;;;5028097;28;20460;-55
2021/09/30 03:03:12;;;;;;;7.90;7.50;;;;;;;;;;5020769;28;20064;-55
2021/09/30 03:05:40;;;;;;;7.63;7.32;;;;;;;;;;5029660;28;20042;-55
2021/09/30 03:08:07;;;;;;;8.52;7.82;;;;;;;;;;5024976;28;20048;-56
2021/09/30 03:10:34;;;;;;;7.57;7.18;;;;;;;;;;5026150;28;20084;-56
2021/09/30 03:13:00;;;;;;;9.07;8.68;;;;;;;;;;5028784;28;20046;-55
2021/09/30 03:15:35;;;;;;;8.63;8.27;;;;;;;;;;5026431;28;20091;-55
2021/09/30 03:20:54;;;;;;;8.57;8.17;;;;;;;;;;5027410;28;20095;-55
2021/09/30 03:23:22;;;;;;;9.05;8.55;;;;;;;;;;5026840;28;20041;-54
2021/09/30 03:25:49;;;;;;;8.63;8.07;;;;;;;;;;5028137;28;20069;-55
2021/09/30 03:28:17;;;;;;;9.85;9.30;;;;;;;;;;5024616;28;20104;-56
2021/09/30 03:30:44;;;;;;;7.40;7.15;;;;;;;;;;5022525;28;20208;-55
2021/09/30 03:33:11;;;;;;;7.55;7.15;;;;;;;;;;5027790;28;20477;-55
2021/09/30 03:35:39;;;;;;;7.22;6.68;;;;;;;;;;5027036;28;20069;-55
2021/09/30 03:38:06;;;;;;;9.35;8.75;;;;;;;;;;5027612;28;20100;-54
2021/09/30 03:40:34;;;;;;;8.93;8.32;;;;;;;;;;5028851;28;20045;-55
2021/09/30 03:43:01;;;;;;;7.95;7.32;;;;;;;;;;5027714;28;20041;-55
2021/09/30 03:45:28;;;;;;;9.10;8.38;;;;;;;;;;5027713;28;20037;-54
2021/09/30 03:47:55;;;;;;;8.88;8.60;;;;;;;;;;5031067;28;20117;-55
2021/09/30 03:56:02;;;;;;;10.00;9.40;;;;;;;;;;5030916;28;20084;-55
2021/09/30 04:01:16;;;;;;;10.55;9.73;;;;;;;;;;5025558;28;20077;-55
2021/09/30 04:03:43;;;;;;;9.23;8.82;;;;;;;;;;5031723;28;20033;-55
2021/09/30 04:06:10;;;;;;;10.63;9.68;;;;;;;;;;5031193;28;20029;-55
2021/09/30 04:08:37;;;;;;;9.93;9.00;;;;;;;;;;5030825;28;20045;-56
2021/09/30 04:11:05;;;;;;;9.48;9.05;;;;;;;;;;5031030;28;20091;-55
2021/09/30 04:13:32;;;;;;;9.93;9.32;;;;;;;;;;5029512;28;20504;-55
2021/09/30 04:15:58;;;;;;;10.07;9.65;;;;;;;;;;5030899;28;20509;-54
2021/09/30 04:18:26;;;;;;;9.45;9.05;;;;;;;;;;5027678;28;20068;-55
2021/09/30 04:20:53;;;;;;;10.13;9.52;;;;;;;;;;5025220;28;20037;-55
2021/09/30 04:23:20;;;;;;;10.27;9.77;;;;;;;;;;5031639;28;20053;-55
2021/09/30 04:25:46;;;;;;;10.25;9.30;;;;;;;;;;5030860;28;20045;-54
2021/09/30 04:28:14;;;;;;;11.02;10.35;;;;;;;;;;5031360;28;20516;-55
2021/09/30 04:30:41;;;;;;;9.93;9.32;;;;;;;;;;5024584;28;20030;-55
2021/09/30 04:33:08;;;;;;;8.90;8.25;;;;;;;;;;5030443;28;20049;-56
2021/09/30 04:35:34;;;;;;;9.10;8.35;;;;;;;;;;5028386;28;20069;-55
2021/09/30 04:38:01;;;;;;;8.13;7.45;;;;;;;;;;5025552;28;20095;-55
2021/09/30 04:40:28;;;;;;;8.32;7.80;;;;;;;;;;5030917;28;20073;-55
2021/09/30 04:42:55;;;;;;;6.88;6.30;;;;;;;;;;5028635;28;20049;-56
2021/09/30 04:45:21;;;;;;;6.03;5.82;;;;;;;;;;5030230;28;20045;-55
2021/09/30 04:47:48;;;;;;;6.60;6.40;;;;;;;;;;5028044;28;20042;-56
2021/09/30 04:50:15;;;;;;;6.95;6.70;;;;;;;;;;5029617;28;20061;-54
2021/09/30 04:52:41;;;;;;;7.28;6.60;;;;;;;;;;5031265;28;20095;-55
2021/09/30 04:55:08;;;;;;;6.25;6.15;;;;;;;;;;5031016;28;20099;-56
2021/09/30 04:57:35;;;;;;;6.43;5.25;;;;;;;;;;5030767;28;20053;-54
2021/09/30 05:00:02;;;;;;;5.18;4.97;;;;;;;;;;5030215;28;20072;-55
2021/09/30 05:02:29;;;;;;;7.07;6.47;;;;;;;;;;5026694;28;20045;-56
2021/09/30 05:04:56;;;;;;;4.72;4.53;;;;;;;;;;5029273;28;20033;-55
2021/09/30 05:07:23;;;;;;;6.43;5.85;;;;;;;;;;5031056;28;20029;-55
2021/09/30 05:09:52;;;;;;;5.93;5.63;;;;;;;;;;5019719;28;20129;-54
2021/09/30 05:12:21;;;;;;;6.40;6.00;;;;;;;;;;5023693;28;20107;-55
2021/09/30 05:14:48;;;;;;;6.07;5.68;;;;;;;;;;5031453;28;20422;-55
2021/09/30 05:17:15;;;;;;;6.22;5.75;;;;;;;;;;5026536;28;20072;-54
2021/09/30 05:19:41;;;;;;;5.80;5.60;;;;;;;;;;5026138;28;20054;-55
2021/09/30 05:22:12;;;;;;;7.50;7.15;;;;;;;;;;5030314;28;20157;-55
2021/09/30 05:24:38;;;;;;;5.97;5.75;;;;;;;;;;5029437;28;20556;-60
2021/09/30 05:27:05;;;;;;;8.50;8.00;;;;;;;;;;5030341;28;20076;-59
2021/09/30 05:29:32;;;;;;;8.45;8.05;;;;;;;;;;5028508;28;20041;-59
2021/09/30 05:31:59;;;;;;;6.97;6.65;;;;;;;;;;5029945;28;20049;-59
2021/09/30 05:34:26;;;;;;;7.18;6.78;;;;;;;;;;5030352;28;20057;-60
2021/09/30 05:36:52;;;;;;;9.43;8.45;;;;;;;;;;5027837;28;20033;-59
2021/09/30 05:39:19;;;;;;;7.68;6.90;;;;;;;;;;5030755;28;20072;-59
2021/09/30 05:41:48;;;;;;;8.63;8.02;;;;;;;;;;5029115;28;20053;-61
2021/09/30 05:44:21;;;;;;;9.20;8.43;;;;;;;;;;5029660;28;20041;-58
2021/09/30 05:46:53;;;;;;;9.57;8.90;;;;;;;;;;5029998;28;20072;-59
2021/09/30 05:49:20;;;;;;;9.68;9.18;;;;;;;;;;5017611;28;20037;-59
2021/09/30 05:51:47;;;;;;;9.07;8.68;;;;;;;;;;5030373;28;20041;-59
2021/09/30 05:54:14;;;;;;;9.27;8.75;;;;;;;;;;5027861;28;20497;-59
2021/09/30 05:56:40;;;;;;;7.97;7.38;;;;;;;;;;5029578;28;20030;-60
2021/09/30 05:59:07;;;;;;;9.40;7.35;;;;;;;;;;5028328;28;20081;-59
2021/09/30 06:14:41;;;;;;;6.55;6.32;;;;;;;;;;5019636;28;20045;-60
2021/09/30 06:17:08;;;;;;;6.45;5.82;;;;;;;;;;5029929;28;20061;-60
2021/09/30 06:19:35;;;;;;;7.70;7.25;;;;;;;;;;5025739;28;20072;-60
2021/09/30 06:22:05;;;;;;;7.75;6.38;;;;;;;;;;5029645;28;20128;-60
2021/09/30 06:24:32;;;;;;;5.80;5.45;;;;;;;;;;5030026;28;20117;-59
2021/09/30 06:27:00;;;;;;;6.50;6.05;;;;;;;;;;5020981;28;20037;-60
2021/09/30 06:29:27;;;;;;;7.72;7.03;;;;;;;;;;5029603;28;20149;-60
2021/09/30 06:31:53;;;;;;;8.32;7.53;;;;;;;;;;5029809;28;20064;-60
2021/09/30 06:34:20;;;;;;;7.22;6.82;;;;;;;;;;5029149;28;20050;-60
2021/09/30 06:36:47;;;;;;;6.50;6.10;;;;;;;;;;5029503;28;20477;-59
2021/09/30 06:39:14;;;;;;;7.30;6.82;;;;;;;;;;5027075;28;20099;-60
2021/09/30 06:41:43;;;;;;;7.63;7.03;;;;;;;;;;5029209;28;20103;-60
2021/09/30 06:44:17;;;;;;;7.25;6.95;;;;;;;;;;5029732;28;20049;-60
2021/09/30 06:46:45;;;;;;;8.32;7.85;;;;;;;;;;5029206;28;20049;-59
2021/09/30 06:49:12;;;;;;;8.80;8.10;;;;;;;;;;5028732;28;20068;-59
2021/09/30 06:51:39;;;;;;;9.45;8.00;;;;;;;;;;5026953;28;20056;-60
2021/09/30 06:54:05;;;;;;;7.57;6.97;;;;;;;;;;5030481;28;20041;-58
2021/09/30 06:56:32;;;;;;;5.65;5.28;;;;;;;;;;5026492;28;20080;-56
2021/09/30 06:59:06;;;;;;;9.18;6.82;;;;;;;;;;5029286;28;20132;-59
2021/09/30 07:01:33;;;;;;;7.07;6.50;;;;;;;;;;5027345;28;20103;-59
2021/09/30 07:04:03;;;;;;;7.43;6.20;;;;;;;;;;5019501;28;20045;-59
2021/09/30 07:06:30;;;;;;;6.18;5.68;;;;;;;;;;5028913;28;20486;-59
2021/09/30 07:08:57;;;;;;;5.30;4.90;;;;;;;;;;5025713;28;20041;-59
2021/09/30 07:11:24;;;;;;;11.25;4.72;;;;;;;;;;5029236;28;20068;-58
2021/09/30 07:13:50;;;;;;;5.10;4.82;;;;;;;;;;5029239;28;20041;-60
2021/09/30 07:16:17;;;;;;;5.57;5.22;;;;;;;;;;5030110;28;20905;-59
2021/09/30 07:18:44;;;;;;;5.60;5.20;;;;;;;;;;5027760;28;20079;-59
2021/09/30 07:21:11;;;;;;;6.05;5.63;;;;;;;;;;5031373;28;20033;-60
2021/09/30 07:23:38;;;;;;;5.78;5.47;;;;;;;;;;5031937;28;20092;-58
2021/09/30 07:26:07;;;;;;;5.03;4.72;;;;;;;;;;5031862;28;20041;-59
2021/09/30 07:28:34;;;;;;;5.35;5.05;;;;;;;;;;5031458;28;20032;-58
2021/09/30 07:31:01;;;;;;;6.32;5.97;;;;;;;;;;5031936;28;20537;-58
2021/09/30 07:33:28;;;;;;;5.13;4.72;;;;;;;;;;5027725;28;20064;-58
2021/09/30 07:35:55;;;;;;;6.20;5.82;;;;;;;;;;5033312;28;20048;-59
2021/09/30 07:38:22;;;;;;;9.68;6.50;;;;;;;;;;5028785;28;20045;-58
2021/09/30 07:40:49;;;;;;;5.25;4.93;;;;;;;;;;5032555;28;20045;-58
2021/09/30 07:43:16;;;;;;;9.77;6.68;;;;;;;;;;5030951;28;20045;-58
2021/09/30 07:45:43;;;;;;;6.60;6.07;;;;;;;;;;5030030;28;20065;-57
2021/09/30 07:48:10;;;;;;;14.68;5.68;;;;;;;;;;5032115;28;20064;-58
2021/09/30 07:50:39;;;;;;;9.90;5.35;;;;;;;;;;5032267;28;20091;-58
2021/09/30 07:53:05;;;;;;;4.93;4.47;;;;;;;;;;5033046;28;20104;-59
2021/09/30 07:55:32;;;;;;;11.02;5.75;;;;;;;;;;5031506;28;20103;-57
2021/09/30 07:57:59;;;;;;;7.05;3.83;;;;;;;;;;5030473;28;20041;-58
2021/09/30 08:00:26;;;;;;;5.72;4.95;;;;;;;;;;5032160;28;20103;-57
2021/09/30 08:02:52;;;;;;;5.38;4.82;;;;;;;;;;5023733;28;20993;-58
2021/09/30 08:05:19;;;;;;;5.20;4.78;;;;;;;;;;5032460;28;20060;-57
2021/09/30 08:07:47;;;;;;;4.53;4.32;;;;;;;;;;5031089;28;20041;-58
2021/09/30 08:10:14;;;;;;;3.97;3.70;;;;;;;;;;5030980;28;20556;-58
2021/09/30 08:12:40;;;;;;;4.88;4.57;;;;;;;;;;5032829;28;20041;-58
2021/09/30 08:15:07;;;;;;;3.88;3.58;;;;;;;;;;5030892;28;20037;-57
2021/09/30 08:17:34;;;;;;;5.45;5.13;;;;;;;;;;5032086;28;20045;-58
2021/09/30 08:20:01;;;;;;;4.70;4.30;;;;;;;;;;5030659;28;20061;-57
2021/09/30 08:22:28;;;;;;;6.43;6.05;;;;;;;;;;5023152;28;20046;-57
2021/09/30 08:24:54;;;;;;;5.22;5.00;;;;;;;;;;5025167;28;20050;-57
2021/09/30 08:27:21;;;;;;;7.13;6.47;;;;;;;;;;5025088;28;20124;-57
2021/09/30 08:29:48;;;;;;;6.38;6.13;;;;;;;;;;5031785;28;20155;-57
2021/09/30 08:32:15;;;;;;;5.72;5.20;;;;;;;;;;5027764;28;20042;-58
2021/09/30 08:34:41;;;;;;;4.93;4.50;;;;;;;;;;5031125;28;20370;-57
2021/09/30 08:37:09;;;;;;;5.68;5.45;;;;;;;;;;5027059;28;20084;-58
2021/09/30 08:39:36;;;;;;;5.70;5.40;;;;;;;;;;5030252;28;20038;-57
2021/09/30 08:42:04;;;;;;;7.30;6.78;;;;;;;;;;5030699;28;20431;-57
2021/09/30 08:44:33;;;;;;;7.93;7.07;;;;;;;;;;5031408;28;20489;-58
2021/09/30 08:47:01;;;;;;;8.00;7.35;;;;;;;;;;5031637;28;20041;-58
2021/09/30 08:49:28;;;;;;;7.97;7.63;;;;;;;;;;5030313;28;20532;-58
2021/09/30 08:51:55;;;;;;;7.55;7.13;;;;;;;;;;5031592;28;20072;-57
2021/09/30 08:54:22;;;;;;;7.60;7.10;;;;;;;;;;5031129;28;20109;-57
2021/09/30 08:56:49;;;;;;;7.88;7.45;;;;;;;;;;5022886;28;20041;-58
2021/09/30 08:59:17;;;;;;;7.78;7.20;;;;;;;;;;5031447;28;20561;-57
2021/09/30 09:02:03;;;;;;;7.00;6.38;;;;;;;;;;5030522;28;20052;-57
2021/09/30 09:04:54;;;;;;;6.43;6.10;;;;;;;;;;5015679;28;20044;-58
2021/09/30 09:07:24;;;;;;;6.85;6.38;;;;;;;;;;5031035;28;20386;-58
2021/09/30 09:09:51;;;;;;;5.45;5.25;;;;;;;;;;5025450;28;20041;-58
2021/09/30 09:12:17;;;;;;;5.80;5.50;;;;;;;;;;5030372;28;20092;-57
2021/09/30 09:14:44;;;;;;;6.18;5.78;;;;;;;;;;5029249;28;20025;-58
2021/09/30 09:17:12;;;;;;;5.13;4.82;;;;;;;;;;5029358;28;20104;-58
2021/09/30 09:19:47;;;;;;;5.55;5.35;;;;;;;;;;5026098;28;20072;-58
2021/09/30 09:22:14;;;;;;;5.05;4.63;;;;;;;;;;5023597;28;20049;-58
2021/09/30 09:24:58;;;;;;;5.28;4.68;;;;;;;;;;5020571;28;20176;-58
2021/09/30 09:27:41;;;;;;;4.78;4.68;;;;;;;;;;5030246;28;20149;-57
2021/09/30 09:30:26;;;;;;;4.93;3.75;;;;;;;;;;5026335;28;20521;-58
2021/09/30 09:33:12;;;;;;;3.95;3.85;;;;;;;;;;5029577;28;20037;-58
2021/09/30 09:35:51;;;;;;;3.83;3.72;;;;;;;;;;5029024;28;20072;-58
2021/09/30 09:38:18;;;;;;;3.65;3.53;;;;;;;;;;5029963;28;20037;-58
2021/09/30 09:40:45;;;;;;;4.63;4.35;;;;;;;;;;5029336;28;20100;-57
2021/09/30 09:43:44;;;;;;;4.57;4.47;;;;;;;;;;5028494;28;20073;-58
2021/09/30 09:46:13;;;;;;;5.07;4.88;;;;;;;;;;5038509;28;20080;-57
2021/09/30 09:48:53;;;;;;;4.07;3.92;;;;;;;;;;5040781;28;20110;-58
2021/09/30 09:51:19;;;;;;;3.88;3.60;;;;;;;;;;5041780;28;20041;-57
2021/09/30 09:53:46;;;;;;;2.88;2.78;;;;;;;;;;5041990;28;20284;-57
2021/09/30 09:56:18;;;;;;;3.03;2.92;;;;;;;;;;5040420;28;20048;-57
2021/09/30 09:58:55;;;;;;;2.83;2.72;;;;;;;;;;5030075;28;20037;-58
2021/09/30 10:01:23;;;;;;;3.15;3.05;;;;;;;;;;5043916;28;20068;-58
2021/09/30 10:03:58;;;;;;;3.55;3.35;;;;;;;;;;5043470;28;20574;-59
2021/09/30 10:06:26;;;;;;;3.65;3.35;;;;;;;;;;5045077;28;20245;-58
2021/09/30 10:08:53;;;;;;;3.28;2.20;;;;;;;;;;5040037;28;20444;-58
2021/09/30 10:11:20;;;;;;;2.58;2.15;;;;;;;;;;5045440;28;20065;-59
2021/09/30 10:13:46;;;;;;;2.95;2.78;;;;;;;;;;5038121;28;20068;-58
2021/09/30 10:16:18;;;;;;;2.28;2.17;;;;;;;;;;5033660;28;20049;-58
2021/09/30 10:18:46;;;;;;;2.33;2.13;;;;;;;;;;5042475;28;20867;-58
2021/09/30 10:21:14;;;;;;;1.63;1.63;;;;;;;;;;5037140;28;20057;-58
2021/09/30 10:23:41;;;;;;;1.88;1.77;;;;;;;;;;5029833;28;20041;-58
2021/09/30 10:26:11;;;;;;;2.08;1.98;;;;;;;;;;5030271;28;20029;-58
2021/09/30 10:28:40;;;;;;;2.97;1.98;;;;;;;;;;5027170;28;20668;-57
2021/09/30 10:31:19;;;;;;;2.08;1.60;;;;;;;;;;5028042;28;20029;-59
2021/09/30 10:33:46;;;;;;;1.80;1.70;;;;;;;;;;5026142;28;20891;-58
2021/09/30 10:36:28;;;;;;;3.30;1.52;;;;;;;;;;5026108;28;20087;-58
2021/09/30 10:39:13;;;;;;;2.53;2.03;;;;;;;;;;5028120;28;20045;-58
2021/09/30 10:41:40;;;;;;;1.95;1.85;;;;;;;;;;5026412;28;20038;-58
2021/09/30 10:44:18;;;;;;;1.40;1.40;;;;;;;;;;5028175;28;20103;-59
2021/09/30 10:46:46;;;;;;;2.38;1.52;;;;;;;;;;5028411;28;20045;-58
2021/09/30 10:49:30;;;;;;;1.40;1.30;;;;;;;;;;5026792;28;20455;-59
2021/09/30 10:52:16;;;;;;;2.33;1.30;;;;;;;;;;5060661;28;20053;-58
2021/09/30 10:54:46;;;;;;;2.65;1.20;;;;;;;;;;5023595;28;20044;-58
2021/09/30 10:57:32;;;;;;;1.45;1.27;;;;;;;;;;5023009;28;20041;-59
2021/09/30 10:59:59;;;;;;;2.67;1.63;;;;;;;;;;5022716;28;20049;-58
2021/09/30 11:02:55;;;;;;;1.95;1.90;;;;;;;;;;5021202;28;20421;-58
2021/09/30 11:05:21;;;;;;;3.17;2.10;;;;;;;;;;5014746;28;20542;-59
2021/09/30 11:08:08;;;;;;;1.98;1.80;;;;;;;;;;5024609;28;20069;-58
2021/09/30 11:10:35;;;;;;;2.17;1.67;;;;;;;;;;5026526;28;20140;-58
2021/09/30 11:13:14;;;;;;;1.48;1.38;;;;;;;;;;5020742;28;20096;-58
2021/09/30 11:16:03;;;;;;;1.90;1.40;;;;;;;;;;5025555;28;20057;-58
2021/09/30 11:18:52;;;;;;;1.52;1.52;;;;;;;;;;5018381;28;20521;-58
2021/09/30 11:21:31;;;;;;;1.30;1.15;;;;;;;;;;5027851;28;20045;-58
2021/09/30 11:24:24;;;;;;;1.42;1.33;;;;;;;;;;5024758;28;20457;-58
2021/09/30 11:26:54;;;;;;;1.10;1.10;;;;;;;;;;5013340;28;20061;-59
2021/09/30 11:29:27;;;;;;;1.60;1.10;;;;;;;;;;5022742;28;20429;-58
2021/09/30 11:31:54;;;;;;;1.60;1.50;;;;;;;;;;5021826;28;20642;-58
2021/09/30 11:34:22;;;;;;;1.25;1.25;;;;;;;;;;5025400;28;20030;-58
2021/09/30 11:36:49;;;;;;;1.20;1.10;;;;;;;;;;5026694;28;20041;-58
2021/09/30 11:39:17;;;;;;;1.52;1.20;;;;;;;;;;5027534;28;20116;-58
2021/09/30 11:41:45;;;;;;;2.30;1.45;;;;;;;;;;5027215;28;20053;-58
2021/09/30 11:44:18;;;;;;;1.35;1.23;;;;;;;;;;5026562;28;20434;-56
2021/09/30 11:46:58;;;;;;;2.25;1.48;;;;;;;;;;5027794;28;20116;-55
2021/09/30 11:49:26;;;;;;;1.20;1.20;;;;;;;;;;5026882;28;20030;-56
2021/09/30 11:51:54;;;;;;;2.20;1.88;;;;;;;;;;5019926;28;20108;-55
2021/09/30 11:54:25;;;;;;;1.77;1.10;;;;;;;;;;5020030;28;20044;-55
2021/09/30 11:56:56;;;;;;;2.47;0.90;;;;;;;;;;5020489;28;20052;-55
2021/09/30 11:59:24;;;;;;;2.33;1.13;;;;;;;;;;5026663;28;20034;-55
2021/09/30 12:01:53;;;;;;;3.90;1.45;;;;;;;;;;5026815;28;20048;-55
2021/09/30 12:04:30;;;;;;;1.80;1.00;;;;;;;;;;5023087;28;20045;-55
2021/09/30 12:06:57;;;;;;;1.23;1.23;;;;;;;;;;5030188;28;20428;-56
2021/09/30 12:09:24;;;;;;;1.33;1.23;;;;;;;;;;5030787;28;20129;-56
2021/09/30 12:11:52;;;;;;;1.10;1.10;;;;;;;;;;5030897;28;20072;-56
2021/09/30 12:14:20;;;;;;;1.05;1.00;;;;;;;;;;5030482;28;20083;-56
2021/09/30 12:17:00;;;;;;;1.20;1.17;;;;;;;;;;5030326;28;20518;-56
2021/09/30 12:19:31;;;;;;;1.40;1.10;;;;;;;;;;5027465;28;20045;-55
2021/09/30 12:21:58;;;;;;;1.30;1.20;;;;;;;;;;5024398;28;20374;-56
2021/09/30 12:24:26;;;;;;;1.63;1.20;;;;;;;;;;5023625;28;20057;-56
2021/09/30 12:26:53;;;;;;;1.10;1.10;;;;;;;;;;5029412;28;20045;-56
2021/09/30 12:29:21;;;;;;;1.00;1.00;;;;;;;;;;5030581;28;20137;-56
2021/09/30 12:32:04;;;;;;;0.90;0.90;;;;;;;;;;5031481;28;20140;-56
2021/09/30 12:34:32;;;;;;;6.13;1.42;;;;;;;;;;5023306;28;20033;-56
2021/09/30 12:36:59;;;;;;;1.20;1.10;;;;;;;;;;5029752;28;20489;-44
2021/09/30 12:39:28;;;;;;;2.05;1.15;;;;;;;;;;5028899;28;20033;-44
2021/09/30 12:41:55;;;;;;;1.00;1.00;;;;;;;;;;5029587;28;20046;-47
2021/09/30 12:44:22;;;;;;;1.05;1.05;;;;;;;;;;5025996;28;20042;-45
2021/09/30 12:46:51;;;;;;;1.00;0.90;;;;;;;;;;5030827;28;20482;-48
2021/09/30 12:49:19;;;;;;;3.00;1.05;;;;;;;;;;5018275;28;20489;-46
2021/09/30 12:51:46;;;;;;;0.95;0.80;;;;;;;;;;5026845;28;20125;-47
2021/09/30 12:54:23;;;;;;;2.05;0.90;;;;;;;;;;5027801;28;21541;-45
2021/09/30 12:56:50;;;;;;;1.00;0.90;;;;;;;;;;5028737;28;20045;-48
2021/09/30 12:59:17;;;;;;;3.08;0.90;;;;;;;;;;5028178;28;20080;-46
2021/09/30 13:01:44;;;;;;;2.65;0.85;;;;;;;;;;5031294;28;20095;-46
2021/09/30 13:04:28;;;;;;;1.58;0.90;;;;;;;;;;5027286;28;20107;-45
2021/09/30 13:07:02;;;;;;;4.00;1.10;;;;;;;;;;5016700;28;20053;-45
2021/09/30 13:09:36;;;;;;;1.52;1.20;;;;;;;;;;5030300;28;20458;-47
2021/09/30 13:12:16;;;;;;;1.02;1.00;;;;;;;;;;5030319;28;20041;-45
2021/09/30 13:14:48;;;;;;;4.55;1.05;;;;;;;;;;5017354;28;20092;-46
2021/09/30 13:17:16;;;;;;;1.77;0.97;;;;;;;;;;5022493;28;20092;-45
2021/09/30 13:19:42;;;;;;;1.63;0.90;;;;;;;;;;5022969;28;20029;-49
2021/09/30 13:22:10;;;;;;;0.90;0.90;;;;;;;;;;5030878;28;20348;-46
2021/09/30 13:24:38;;;;;;;1.45;0.80;;;;;;;;;;5028500;28;20451;-46
2021/09/30 13:27:06;;;;;;;0.90;0.90;;;;;;;;;;5022677;28;20056;-46
2021/09/30 13:29:41;;;;;;;1.75;0.88;;;;;;;;;;5027722;28;20079;-48
2021/09/30 13:32:08;;;;;;;1.70;1.00;;;;;;;;;;5029053;28;20037;-45
2021/09/30 13:34:35;;;;;;;0.90;0.90;;;;;;;;;;5031517;28;20079;-45
2021/09/30 13:37:02;;;;;;;0.80;0.80;;;;;;;;;;5028845;28;20044;-45
2021/09/30 13:39:29;;;;;;;1.70;0.90;;;;;;;;;;5028986;28;20041;-47
2021/09/30 13:41:56;;;;;;;1.48;0.90;;;;;;;;;;5026984;28;20077;-47
2021/09/30 13:44:23;;;;;;;1.20;1.00;;;;;;;;;;5027285;28;20128;-45
2021/09/30 13:46:50;;;;;;;1.20;1.20;;;;;;;;;;5030761;28;20037;-45
2021/09/30 13:49:17;;;;;;;6.53;1.10;;;;;;;;;;5028341;28;20043;-46
2021/09/30 13:51:44;;;;;;;1.70;1.00;;;;;;;;;;5029620;28;20069;-43
2021/09/30 13:54:10;;;;;;;3.35;1.20;;;;;;;;;;5029384;28;20033;-46
2021/09/30 13:56:37;;;;;;;3.72;1.65;;;;;;;;;;5018500;28;20084;-49
2021/09/30 13:59:04;;;;;;;1.13;1.10;;;;;;;;;;5029107;28;20088;-45
2021/09/30 14:01:53;;;;;;;1.17;1.17;;;;;;;;;;5029477;28;20069;-47
2021/09/30 14:04:20;;;;;;;1.50;1.05;;;;;;;;;;5029773;28;20132;-46
2021/09/30 14:06:48;;;;;;;2.40;1.30;;;;;;;;;;5026984;28;20498;-47
2021/09/30 14:09:16;;;;;;;1.30;1.20;;;;;;;;;;5028413;28;20091;-45
2021/09/30 14:11:43;;;;;;;1.67;1.00;;;;;;;;;;5028592;28;20129;-46
2021/09/30 14:14:10;;;;;;;1.98;1.20;;;;;;;;;;5022291;28;20296;-47
2021/09/30 14:16:37;;;;;;;1.35;1.35;;;;;;;;;;5029720;28;20041;-44
2021/09/30 14:19:04;;;;;;;2.80;1.40;;;;;;;;;;5027621;28;20068;-45
2021/09/30 14:21:30;;;;;;;1.13;1.13;;;;;;;;;;5021107;28;20050;-44
2021/09/30 14:23:57;;;;;;;1.38;1.20;;;;;;;;;;5029520;28;20064;-45
2021/09/30 14:26:24;;;;;;;1.50;1.40;;;;;;;;;;5029377;28;20797;-44
2021/09/30 14:28:51;;;;;;;1.20;1.10;;;;;;;;;;5028895;28;20041;-46
2021/09/30 14:31:18;;;;;;;1.20;1.10;;;;;;;;;;5023419;28;20029;-46
2021/09/30 14:33:45;;;;;;;5.00;2.10;;;;;;;;;;5027329;28;20076;-46
2021/09/30 14:36:12;;;;;;;2.25;1.42;;;;;;;;;;5028938;28;20129;-46
2021/09/30 14:38:39;;;;;;;2.40;1.10;;;;;;;;;;5026395;28;20042;-44
2021/09/30 14:41:07;;;;;;;4.32;1.67;;;;;;;;;;5029162;28;20543;-45
2021/09/30 14:43:37;;;;;;;1.98;1.10;;;;;;;;;;5026402;28;20060;-45
2021/09/30 14:46:05;;;;;;;2.55;1.42;;;;;;;;;;5027494;28;20049;-49
2021/09/30 14:48:32;;;;;;;1.45;1.35;;;;;;;;;;5027483;28;20057;-49
2021/09/30 14:51:02;;;;;;;2.28;1.45;;;;;;;;;;5017463;28;20045;-46
2021/09/30 14:53:29;;;;;;;2.13;1.45;;;;;;;;;;5028419;28;20072;-45
2021/09/30 14:55:56;;;;;;;1.25;1.15;;;;;;;;;;5027567;28;20114;-46
2021/09/30 14:58:23;;;;;;;4.10;1.30;;;;;;;;;;5029351;28;20056;-47
2021/09/30 15:00:50;;;;;;;2.90;0.90;;;;;;;;;;5028079;28;20548;-47
2021/09/30 15:03:17;;;;;;;1.13;1.13;;;;;;;;;;5018508;28;20034;-49
2021/09/30 15:05:44;;;;;;;1.20;1.10;;;;;;;;;;5023682;28;20045;-47
2021/09/30 15:08:11;;;;;;;1.67;1.20;;;;;;;;;;5016648;28;20513;-45
2021/09/30 15:10:38;;;;;;;2.90;1.40;;;;;;;;;;5029424;28;20068;-47
2021/09/30 15:13:05;;;;;;;1.17;1.08;;;;;;;;;;5028051;28;20103;-45
2021/09/30 15:15:33;;;;;;;1.30;1.20;;;;;;;;;;5020959;28;20125;-44
2021/09/30 15:23:15;;;;;;;4.82;1.42;;;;;;;;;;5028969;28;20135;-45
2021/09/30 15:25:46;;;;;;;1.33;1.30;;;;;;;;;;5024670;28;20119;-46
2021/09/30 15:28:16;;;;;;;1.52;1.30;;;;;;;;;;5027525;28;20474;-44
2021/09/30 15:30:44;;;;;;;2.75;1.50;;;;;;;;;;5027905;28;20123;-45
2021/09/30 15:33:12;;;;;;;2.88;2.03;;;;;;;;;;5018178;28;20059;-46
2021/09/30 15:35:40;;;;;;;1.40;1.30;;;;;;;;;;5028798;28;20034;-46
2021/09/30 15:38:08;;;;;;;1.63;1.17;;;;;;;;;;5026936;28;20113;-44
2021/09/30 15:40:34;;;;;;;1.58;1.58;;;;;;;;;;5014492;28;20084;-47
2021/09/30 15:43:01;;;;;;;1.80;1.30;;;;;;;;;;5031442;28;20045;-46
2021/09/30 15:45:28;;;;;;;1.23;1.00;;;;;;;;;;5022121;28;20083;-45
2021/09/30 15:47:54;;;;;;;1.75;1.65;;;;;;;;;;5031815;28;20033;-44
2021/09/30 15:50:23;;;;;;;2.80;1.20;;;;;;;;;;5031896;28;20067;-45
2021/09/30 15:52:51;;;;;;;1.33;1.23;;;;;;;;;;5032084;28;20524;-46
2021/09/30 15:55:18;;;;;;;1.80;1.52;;;;;;;;;;5030835;28;20100;-45
2021/09/30 15:57:45;;;;;;;1.52;1.13;;;;;;;;;;5032589;28;20045;-45
2021/09/30 16:00:12;;;;;;;1.50;1.35;;;;;;;;;;5023085;28;20124;-48
2021/09/30 16:02:39;;;;;;;1.40;1.30;;;;;;;;;;5022466;28;20478;-45
2021/09/30 16:05:06;;;;;;;1.30;1.20;;;;;;;;;;5031796;28;20089;-46
2021/09/30 16:07:33;;;;;;;1.75;1.35;;;;;;;;;;5030253;28;20041;-45
2021/09/30 16:10:00;;;;;;;1.20;1.10;;;;;;;;;;5026808;28;20034;-45
2021/09/30 16:12:27;;;;;;;1.30;1.20;;;;;;;;;;5030543;28;20045;-46
2021/09/30 16:14:54;;;;;;;1.50;1.40;;;;;;;;;;5030568;28;20101;-46
2021/09/30 16:17:21;;;;;;;3.55;1.50;;;;;;;;;;5031434;28;20029;-48
2021/09/30 16:19:51;;;;;;;3.60;1.65;;;;;;;;;;5026279;28;20044;-46
2021/09/30 16:22:18;;;;;;;3.08;1.50;;;;;;;;;;5016806;28;20069;-44
2021/09/30 16:24:45;;;;;;;3.55;1.38;;;;;;;;;;5031980;28;20076;-47
2021/09/30 16:27:12;;;;;;;2.00;1.80;;;;;;;;;;5030306;28;20033;-45
2021/09/30 16:29:39;;;;;;;1.92;1.48;;;;;;;;;;5030638;28;20099;-43
2021/09/30 16:32:07;;;;;;;1.60;1.40;;;;;;;;;;5029074;28;20077;-44
2021/09/30 16:34:35;;;;;;;1.83;1.40;;;;;;;;;;5030344;28;20045;-45
2021/09/30 16:37:02;;;;;;;1.60;1.50;;;;;;;;;;5030835;28;20088;-46
2021/09/30 16:39:29;;;;;;;2.20;1.55;;;;;;;;;;5030359;28;20086;-44
2021/09/30 16:41:55;;;;;;;1.60;1.20;;;;;;;;;;5031472;28;20139;-44
2021/09/30 16:44:22;;;;;;;1.70;1.60;;;;;;;;;;5029704;28;20117;-44
2021/09/30 16:46:50;;;;;;;2.20;1.75;;;;;;;;;;5032016;28;20045;-44
2021/09/30 16:49:18;;;;;;;2.15;2.00;;;;;;;;;;5029776;28;20518;-46
2021/09/30 16:51:48;;;;;;;3.35;1.85;;;;;;;;;;5030757;28;20065;-44
2021/09/30 16:54:17;;;;;;;1.58;1.20;;;;;;;;;;5026220;28;20362;-47
2021/09/30 16:56:43;;;;;;;4.97;1.95;;;;;;;;;;5021292;28;20131;-46
2021/09/30 16:59:12;;;;;;;6.97;1.60;;;;;;;;;;5020761;28;20115;-55
2021/09/30 17:01:42;;;;;;;1.98;1.88;;;;;;;;;;5025304;28;20095;-55
2021/09/30 17:04:10;;;;;;;1.60;1.55;;;;;;;;;;5027309;28;20041;-57
2021/09/30 17:06:38;;;;;;;2.40;1.63;;;;;;;;;;5026812;28;20029;-56
2021/09/30 17:09:06;;;;;;;2.22;2.03;;;;;;;;;;5024807;28;20068;-55
2021/09/30 17:11:33;;;;;;;6.28;2.45;;;;;;;;;;5022779;28;20061;-55
2021/09/30 17:14:00;;;;;;;1.90;1.60;;;;;;;;;;5024758;28;20116;-55
2021/09/30 17:16:27;;;;;;;2.72;1.70;;;;;;;;;;5024587;28;20041;-55
2021/09/30 17:18:54;;;;;;;2.35;2.13;;;;;;;;;;5023826;28;20077;-55
2021/09/30 17:21:21;;;;;;;3.15;2.10;;;;;;;;;;5027504;28;20064;-54
2021/09/30 17:23:49;;;;;;;6.47;1.80;;;;;;;;;;5021660;28;20049;-55
2021/09/30 17:26:16;;;;;;;2.08;1.63;;;;;;;;;;5026327;28;20153;-55
2021/09/30 17:28:42;;;;;;;1.42;1.33;;;;;;;;;;5027324;28;20433;-55
2021/09/30 17:31:09;;;;;;;3.10;1.83;;;;;;;;;;5027314;28;20037;-55
2021/09/30 17:33:36;;;;;;;2.50;1.90;;;;;;;;;;5028947;28;20118;-56
2021/09/30 17:36:04;;;;;;;2.85;1.58;;;;;;;;;;5029849;28;20037;-55
2021/09/30 17:38:31;;;;;;;1.70;1.60;;;;;;;;;;5028737;28;20049;-55
2021/09/30 17:40:57;;;;;;;3.70;2.45;;;;;;;;;;5030227;28;20428;-56
2021/09/30 17:43:24;;;;;;;3.30;2.38;;;;;;;;;;5028237;28;20040;-54
2021/09/30 17:45:51;;;;;;;2.60;2.40;;;;;;;;;;5028676;28;20053;-53
2021/09/30 17:48:18;;;;;;;3.75;2.85;;;;;;;;;;5024429;28;20041;-55
2021/09/30 17:50:46;;;;;;;2.70;2.60;;;;;;;;;;5031325;28;20107;-55
2021/09/30 17:53:14;;;;;;;3.03;2.70;;;;;;;;;;5029778;28;20374;-55
2021/09/30 17:55:41;;;;;;;2.58;2.47;;;;;;;;;;5029441;28;20045;-55
2021/09/30 17:58:08;;;;;;;3.20;3.00;;;;;;;;;;5027723;28;20414;-56